Time;durP1;ratioP1;P1;durP2;ratioP2;P2;SDS_P1;SDS_P2;PMS_P1;PMS_P2;Temp;Humidity;BMP_temperature;BMP_pressure;BME280_temperature;BME280_humidity;BME280_pressure;Samples;Min_cycle;Max_cycle;Signal;HPM_P1;HPM_P2
2022/10/09 00:01:28;;;;;;;16.55;5.13;;;7.00;99.90;;;;;;5006976;28;20054;-78
2022/10/09 00:03:55;;;;;;;20.85;6.13;;;7.00;99.90;;;;;;5011729;28;20134;-76
2022/10/09 00:06:26;;;;;;;21.77;5.60;;;7.00;99.90;;;;;;5007772;28;20129;-76
2022/10/09 00:08:52;;;;;;;15.25;5.13;;;7.00;99.90;;;;;;4995730;28;20050;-75
2022/10/09 00:11:21;;;;;;;15.82;5.47;;;7.00;99.90;;;;;;4994306;28;20180;-75
2022/10/09 00:13:48;;;;;;;18.75;5.22;;;7.00;99.90;;;;;;4993858;28;20456;-78
2022/10/09 00:16:15;;;;;;;18.95;4.53;;;7.00;99.90;;;;;;4993885;28;20133;-76
2022/10/09 00:18:42;;;;;;;13.05;4.65;;;6.90;99.90;;;;;;4993739;28;20046;-77
2022/10/09 00:21:18;;;;;;;14.60;4.30;;;6.90;99.90;;;;;;4993023;28;20148;-77
2022/10/09 00:23:44;;;;;;;23.52;5.63;;;6.90;99.90;;;;;;4993498;28;20383;-78
2022/10/09 00:26:10;;;;;;;18.25;6.03;;;6.90;99.90;;;;;;4993223;28;20104;-77
2022/10/09 00:28:36;;;;;;;21.45;5.47;;;6.80;99.90;;;;;;4993749;28;20494;-78
2022/10/09 00:31:08;;;;;;;14.00;5.07;;;6.80;99.90;;;;;;4992378;28;20363;-77
2022/10/09 00:33:35;;;;;;;16.00;5.55;;;6.80;99.90;;;;;;4993442;28;20049;-78
2022/10/09 00:36:06;;;;;;;23.30;5.45;;;6.70;99.90;;;;;;4991456;28;20050;-78
2022/10/09 00:38:32;;;;;;;15.77;5.40;;;6.70;99.90;;;;;;4993183;28;20043;-78
2022/10/09 00:40:58;;;;;;;23.42;6.18;;;6.70;99.90;;;;;;4993294;28;20050;-77
2022/10/09 00:43:43;;;;;;;24.20;5.82;;;6.70;99.90;;;;;;4993161;28;20053;-77
2022/10/09 00:46:26;;;;;;;22.27;6.82;;;6.70;99.90;;;;;;4991921;28;20042;-77
2022/10/09 00:49:17;;;;;;;23.95;6.20;;;6.70;99.90;;;;;;4993166;28;20093;-76
2022/10/09 00:51:46;;;;;;;14.88;5.35;;;6.70;99.90;;;;;;4968356;28;20058;-77
2022/10/09 00:54:14;;;;;;;19.65;5.68;;;6.70;99.90;;;;;;4992756;28;20125;-77
2022/10/09 00:56:40;;;;;;;14.35;5.55;;;6.70;99.90;;;;;;4992621;28;20482;-76
2022/10/09 00:59:07;;;;;;;24.08;6.47;;;6.70;99.90;;;;;;4992915;28;20072;-78
2022/10/09 01:01:33;;;;;;;21.20;5.93;;;6.70;99.90;;;;;;4992751;28;20061;-77
2022/10/09 01:03:58;;;;;;;14.35;6.10;;;6.70;99.90;;;;;;4991789;28;20042;-77
2022/10/09 01:06:36;;;;;;;15.27;6.10;;;6.70;99.90;;;;;;4991853;28;20093;-76
2022/10/09 01:09:18;;;;;;;18.77;5.97;;;6.70;99.90;;;;;;4993753;28;20077;-75
2022/10/09 01:12:19;;;;;;;19.80;5.88;;;6.70;99.90;;;;;;4995802;28;20363;-74
2022/10/09 01:14:58;;;;;;;22.25;6.22;;;6.60;99.90;;;;;;4997882;28;20062;-76
2022/10/09 01:17:30;;;;;;;22.23;5.82;;;6.60;99.90;;;;;;4996595;28;20053;-77
2022/10/09 01:20:21;;;;;;;16.58;5.85;;;6.60;99.90;;;;;;5010933;28;20057;-77
2022/10/09 01:22:55;;;;;;;21.08;6.10;;;6.50;99.90;;;;;;4993443;28;20061;-76
2022/10/09 01:25:32;;;;;;;22.05;6.35;;;6.60;99.90;;;;;;4991826;28;20046;-76
2022/10/09 01:28:00;;;;;;;24.08;7.15;;;6.50;99.90;;;;;;4993511;28;20092;-76
2022/10/09 01:30:25;;;;;;;;;;;6.50;99.90;;;;;;4992834;28;20447;-77
2022/10/09 01:32:53;;;;;;;19.20;5.93;;;6.50;99.90;;;;;;4992530;28;19941;-77
2022/10/09 01:35:20;;;;;;;19.42;6.13;;;6.50;99.90;;;;;;4992951;28;20046;-77
2022/10/09 01:37:46;;;;;;;17.08;6.78;;;6.50;99.90;;;;;;5007809;28;20050;-77
2022/10/09 01:40:15;;;;;;;17.70;6.60;;;6.50;99.90;;;;;;4993236;28;20046;-76
2022/10/09 01:42:41;;;;;;;20.60;6.75;;;6.50;99.90;;;;;;5007239;28;20046;-74
2022/10/09 01:45:08;;;;;;;17.93;6.20;;;6.50;99.90;;;;;;4992873;28;20054;-77
2022/10/09 01:47:35;;;;;;;20.27;6.60;;;6.40;99.90;;;;;;4993442;28;20048;-74
2022/10/09 01:50:06;;;;;;;16.42;6.25;;;6.40;99.90;;;;;;4995215;28;20105;-76
2022/10/09 01:52:53;;;;;;;23.13;6.50;;;6.40;99.90;;;;;;4994892;28;20054;-75
2022/10/09 01:55:18;;;;;;;;;;;6.40;99.90;;;;;;4996788;28;20046;-75
2022/10/09 01:58:19;;;;;;;18.00;6.28;;;6.40;99.90;;;;;;4996176;28;20020;-75
2022/10/09 02:01:14;;;;;;;20.55;6.63;;;6.40;99.90;;;;;;4995781;28;20058;-75
2022/10/09 02:03:43;;;;;;;20.50;6.80;;;6.40;99.90;;;;;;4987958;28;20392;-75
2022/10/09 02:06:12;;;;;;;20.55;6.65;;;6.40;99.90;;;;;;4995886;28;20046;-74
2022/10/09 02:08:39;;;;;;;15.93;6.47;;;6.40;99.90;;;;;;4994971;28;20053;-74
2022/10/09 02:11:06;;;;;;;20.23;6.88;;;6.40;99.90;;;;;;4996094;28;20108;-75
2022/10/09 02:13:34;;;;;;;20.27;6.87;;;6.30;99.90;;;;;;4995908;28;20046;-75
2022/10/09 02:16:17;;;;;;;18.25;6.60;;;6.30;99.90;;;;;;4995289;28;20293;-74
2022/10/09 02:18:47;;;;;;;19.75;7.65;;;6.30;99.90;;;;;;4997278;28;20387;-74
2022/10/09 02:21:45;;;;;;;21.80;7.03;;;6.20;99.90;;;;;;5011577;28;20093;-75
2022/10/09 02:24:14;;;;;;;22.48;7.20;;;6.20;99.90;;;;;;4993691;28;20062;-75
2022/10/09 02:26:41;;;;;;;19.73;7.15;;;6.20;99.90;;;;;;5010857;28;20061;-75
2022/10/09 02:29:07;;;;;;;23.63;7.00;;;6.20;99.90;;;;;;4995262;28;20069;-74
2022/10/09 02:31:36;;;;;;;30.42;7.57;;;6.20;99.90;;;;;;4994754;28;20521;-74
2022/10/09 02:34:05;;;;;;;21.67;6.90;;;6.20;99.90;;;;;;5010990;28;20054;-79
2022/10/09 02:36:31;;;;;;;22.30;7.35;;;6.20;99.90;;;;;;5010191;28;20058;-73
2022/10/09 02:38:57;;;;;;;19.38;7.00;;;6.10;99.90;;;;;;5010715;28;20046;-76
2022/10/09 02:41:24;;;;;;;25.45;7.10;;;6.10;99.90;;;;;;4995589;28;20382;-74
2022/10/09 02:43:50;;;;;;;22.88;7.35;;;6.10;99.90;;;;;;4995342;28;20150;-74
2022/10/09 02:46:16;;;;;;;18.90;7.18;;;6.00;99.90;;;;;;4994396;28;20069;-73
2022/10/09 02:48:42;;;;;;;17.63;7.35;;;6.10;99.90;;;;;;5010468;28;20042;-73
2022/10/09 02:51:08;;;;;;;16.45;6.93;;;6.10;99.90;;;;;;4994513;28;20050;-73
2022/10/09 02:53:34;;;;;;;15.35;6.75;;;6.10;99.90;;;;;;4995348;28;20137;-75
2022/10/09 02:56:00;;;;;;;18.20;6.88;;;6.00;99.90;;;;;;4977541;28;20192;-74
2022/10/09 02:58:28;;;;;;;18.10;6.80;;;6.00;99.90;;;;;;4994081;28;20399;-73
2022/10/09 03:00:54;;;;;;;30.42;8.30;;;6.00;99.90;;;;;;4995526;28;20445;-74
2022/10/09 03:03:20;;;;;;;17.58;6.50;;;6.00;99.90;;;;;;4977673;28;20120;-75
2022/10/09 03:05:46;;;;;;;21.50;7.75;;;5.90;99.90;;;;;;5009997;28;20133;-74
2022/10/09 03:08:12;;;;;;;17.35;6.65;;;5.90;99.90;;;;;;4993496;28;20057;-75
2022/10/09 03:10:39;;;;;;;19.83;6.75;;;5.90;99.90;;;;;;4993970;28;20052;-74
2022/10/09 03:13:05;;;;;;;21.80;7.37;;;5.90;99.90;;;;;;4994678;28;20140;-75
2022/10/09 03:15:35;;;;;;;22.55;7.05;;;5.80;99.90;;;;;;5009864;28;20046;-76
2022/10/09 03:18:01;;;;;;;17.80;6.97;;;5.90;99.90;;;;;;4994592;28;20065;-76
2022/10/09 03:20:29;;;;;;;19.58;6.95;;;5.80;99.90;;;;;;5009639;28;20046;-75
2022/10/09 03:22:55;;;;;;;22.55;7.38;;;5.90;99.90;;;;;;4994556;28;20046;-73
2022/10/09 03:25:22;;;;;;;20.45;7.18;;;5.80;99.90;;;;;;5009477;28;20051;-73
2022/10/09 03:27:48;;;;;;;17.27;7.13;;;5.80;99.90;;;;;;4993328;28;20450;-75
2022/10/09 03:30:14;;;;;;;21.40;6.75;;;5.80;99.90;;;;;;4961019;28;20046;-72
2022/10/09 03:32:40;;;;;;;18.75;6.85;;;5.80;99.90;;;;;;5009482;28;20050;-74
2022/10/09 03:35:06;;;;;;;18.40;6.95;;;5.80;99.90;;;;;;4976864;28;20493;-79
2022/10/09 03:37:31;;;;;;;17.00;6.15;;;5.80;99.90;;;;;;4977429;28;20165;-76
2022/10/09 03:39:57;;;;;;;19.27;6.35;;;5.70;99.90;;;;;;4992617;28;20485;-74
2022/10/09 03:42:23;;;;;;;15.02;6.18;;;5.70;99.90;;;;;;4994215;28;20079;-74
2022/10/09 03:44:49;;;;;;;18.50;6.40;;;5.70;99.90;;;;;;4993112;28;20210;-74
2022/10/09 03:47:15;;;;;;;18.98;6.40;;;5.70;99.90;;;;;;4993199;28;20042;-73
2022/10/09 03:49:41;;;;;;;16.75;6.13;;;5.70;99.90;;;;;;4992921;28;20046;-73
2022/10/09 03:52:07;;;;;;;17.77;6.13;;;5.60;99.90;;;;;;4992487;28;20450;-79
2022/10/09 03:54:33;;;;;;;19.13;6.15;;;5.60;99.90;;;;;;4992778;28;20051;-74
2022/10/09 03:56:58;;;;;;;18.27;5.88;;;5.50;99.90;;;;;;4977072;28;20043;-73
2022/10/09 03:59:24;;;;;;;16.13;5.97;;;5.50;99.90;;;;;;4992755;28;20411;-73
2022/10/09 04:01:50;;;;;;;13.00;5.55;;;5.50;99.90;;;;;;4993524;28;20124;-73
2022/10/09 04:04:16;;;;;;;17.15;7.13;;;5.50;99.90;;;;;;4993761;28;20113;-74
2022/10/09 04:06:42;;;;;;;18.52;6.22;;;5.50;99.90;;;;;;4993101;28;20129;-73
2022/10/09 04:09:08;;;;;;;13.80;6.07;;;5.50;99.90;;;;;;4976476;28;20081;-78
2022/10/09 04:11:34;;;;;;;19.52;6.97;;;5.50;99.90;;;;;;4992932;28;20072;-73
2022/10/09 04:14:00;;;;;;;20.17;6.70;;;5.40;99.90;;;;;;4992530;28;20498;-78
2022/10/09 04:16:26;;;;;;;16.77;6.50;;;5.50;99.90;;;;;;4993612;28;20085;-73
2022/10/09 04:18:51;;;;;;;17.83;6.93;;;5.50;99.90;;;;;;4992419;28;20497;-73
2022/10/09 04:21:17;;;;;;;15.40;6.47;;;5.50;99.90;;;;;;4976219;28;20077;-75
2022/10/09 04:23:43;;;;;;;23.17;7.13;;;5.50;99.90;;;;;;4993207;28;20069;-73
2022/10/09 04:26:11;;;;;;;22.58;6.80;;;5.50;99.90;;;;;;4993242;28;20042;-78
2022/10/09 04:28:37;;;;;;;17.15;5.95;;;5.50;99.90;;;;;;4976751;28;20107;-73
2022/10/09 04:31:03;;;;;;;19.98;6.82;;;5.50;99.90;;;;;;4992413;28;20046;-73
2022/10/09 04:33:29;;;;;;;18.75;6.95;;;5.50;99.90;;;;;;5009144;28;20121;-74
2022/10/09 04:35:56;;;;;;;20.40;7.17;;;5.50;99.90;;;;;;5008995;28;20042;-73
2022/10/09 04:38:23;;;;;;;15.88;7.30;;;5.50;99.90;;;;;;4993347;28;20046;-73
2022/10/09 04:41:00;;;;;;;20.55;7.72;;;5.50;99.90;;;;;;4992883;28;20467;-74
2022/10/09 04:43:27;;;;;;;21.27;7.10;;;5.50;99.90;;;;;;4992169;28;20105;-73
2022/10/09 04:45:53;;;;;;;17.50;6.72;;;5.50;99.90;;;;;;4992713;28;20467;-73
2022/10/09 04:48:19;;;;;;;17.60;7.03;;;5.50;99.90;;;;;;4991979;28;20057;-73
2022/10/09 04:50:45;;;;;;;17.03;6.37;;;5.50;99.90;;;;;;4991527;28;20097;-74
2022/10/09 04:53:11;;;;;;;20.10;6.78;;;5.50;99.90;;;;;;4993414;28;20133;-77
2022/10/09 04:55:41;;;;;;;19.17;7.15;;;5.40;99.90;;;;;;4992673;28;20501;-73
2022/10/09 04:58:08;;;;;;;19.67;7.20;;;5.40;99.90;;;;;;4993094;28;20050;-74
2022/10/09 05:00:38;;;;;;;23.50;7.47;;;5.40;99.90;;;;;;4992226;28;20121;-73
2022/10/09 05:03:04;;;;;;;16.27;7.35;;;5.40;99.90;;;;;;4993105;28;20050;-75
2022/10/09 05:05:31;;;;;;;15.57;7.30;;;5.40;99.90;;;;;;4992423;28;20137;-75
2022/10/09 05:07:57;;;;;;;19.67;7.53;;;5.40;99.90;;;;;;4993654;28;20085;-76
2022/10/09 05:10:22;;;;;;;21.38;7.85;;;5.40;99.90;;;;;;4991857;28;20042;-75
2022/10/09 05:12:48;;;;;;;18.35;7.82;;;5.40;99.90;;;;;;4992065;28;20042;-76
2022/10/09 05:15:14;;;;;;;19.08;7.35;;;5.50;99.90;;;;;;4991993;28;20042;-80
2022/10/09 05:17:40;;;;;;;15.27;7.28;;;5.50;99.90;;;;;;4993278;28;20046;-74
2022/10/09 05:20:06;;;;;;;23.17;7.35;;;5.50;99.90;;;;;;4991943;28;20112;-76
2022/10/09 05:22:31;;;;;;;16.80;7.43;;;5.50;99.90;;;;;;5009358;28;20062;-76
2022/10/09 05:24:57;;;;;;;16.92;7.68;;;5.50;99.90;;;;;;4995665;28;20491;-76
2022/10/09 05:27:23;;;;;;;19.48;7.45;;;5.50;99.90;;;;;;4996027;28;20475;-76
2022/10/09 05:29:49;;;;;;;18.35;7.18;;;5.50;99.90;;;;;;4997064;28;20047;-78
2022/10/09 05:32:14;;;;;;;18.42;7.50;;;5.50;99.90;;;;;;4980177;28;20046;-75
2022/10/09 05:34:40;;;;;;;25.17;7.55;;;5.50;99.90;;;;;;4979189;28;20109;-76
2022/10/09 05:37:06;;;;;;;20.20;7.72;;;5.40;99.90;;;;;;4995321;28;20046;-77
2022/10/09 05:39:34;;;;;;;20.38;8.15;;;5.40;99.90;;;;;;5011136;28;20046;-75
2022/10/09 05:42:01;;;;;;;19.60;7.82;;;5.40;99.90;;;;;;4996871;28;20121;-76
2022/10/09 05:44:26;;;;;;;16.23;8.37;;;5.40;99.90;;;;;;4995925;28;20282;-77
2022/10/09 05:46:52;;;;;;;17.75;8.50;;;5.40;99.90;;;;;;4995205;28;20403;-76
2022/10/09 05:49:18;;;;;;;20.02;8.40;;;5.30;99.90;;;;;;4996296;28;20082;-80
2022/10/09 05:51:44;;;;;;;22.50;8.95;;;5.30;99.90;;;;;;5011073;28;20058;-76
2022/10/09 05:54:14;;;;;;;24.75;8.70;;;5.30;99.90;;;;;;4996109;28;20054;-76
2022/10/09 05:56:41;;;;;;;29.83;9.60;;;5.30;99.90;;;;;;4996850;28;20053;-77
2022/10/09 05:59:18;;;;;;;22.75;8.10;;;5.20;99.90;;;;;;4994881;28;20098;-76
2022/10/09 06:01:47;;;;;;;19.67;8.80;;;5.30;99.90;;;;;;5011624;28;20046;-77
2022/10/09 06:04:15;;;;;;;28.90;8.85;;;5.30;99.90;;;;;;4996092;28;20057;-77
2022/10/09 06:06:42;;;;;;;24.58;8.90;;;5.50;99.90;;;;;;4994816;28;20046;-75
2022/10/09 06:09:09;;;;;;;20.57;8.90;;;5.30;99.90;;;;;;4995294;28;20057;-79
2022/10/09 06:11:37;;;;;;;20.23;9.23;;;5.40;99.90;;;;;;4994693;28;20819;-75
2022/10/09 06:14:05;;;;;;;20.67;8.50;;;5.40;99.90;;;;;;5010943;28;20309;-75
2022/10/09 06:16:34;;;;;;;22.65;8.82;;;5.40;99.90;;;;;;4995834;28;20042;-75
2022/10/09 06:19:00;;;;;;;26.02;9.45;;;5.50;99.90;;;;;;4996409;28;20375;-81
2022/10/09 06:21:26;;;;;;;20.58;8.68;;;5.50;99.90;;;;;;4994650;28;20046;-76
2022/10/09 06:23:57;;;;;;;23.20;9.38;;;5.60;99.90;;;;;;4994669;28;20372;-76
2022/10/09 06:26:24;;;;;;;21.38;9.80;;;5.50;99.90;;;;;;4995764;28;20464;-80
2022/10/09 06:28:51;;;;;;;23.63;9.45;;;5.50;99.90;;;;;;4994505;28;20053;-76
2022/10/09 06:31:19;;;;;;;21.35;10.27;;;5.50;99.90;;;;;;5011304;28;20062;-77
2022/10/09 06:33:47;;;;;;;24.83;10.27;;;5.60;99.90;;;;;;4995625;28;20090;-78
2022/10/09 06:36:16;;;;;;;24.70;10.20;;;5.60;99.90;;;;;;4978482;28;20407;-75
2022/10/09 06:38:43;;;;;;;24.63;10.30;;;5.70;99.90;;;;;;4994913;28;20046;-77
2022/10/09 06:41:13;;;;;;;25.00;10.57;;;5.70;99.90;;;;;;4994181;28;20105;-77
2022/10/09 06:43:40;;;;;;;30.48;10.57;;;5.80;99.90;;;;;;4995328;28;20050;-76
2022/10/09 06:46:08;;;;;;;26.17;11.03;;;5.80;99.90;;;;;;4995233;28;20050;-77
2022/10/09 06:48:36;;;;;;;27.33;11.07;;;5.80;99.90;;;;;;4993871;28;20813;-75
2022/10/09 06:51:16;;;;;;;27.13;11.70;;;5.90;99.90;;;;;;4994656;28;20038;-78
2022/10/09 06:53:51;;;;;;;33.03;12.55;;;5.90;99.90;;;;;;4978236;28;20082;-78
2022/10/09 06:56:18;;;;;;;27.42;11.55;;;6.00;99.90;;;;;;4977824;28;20046;-77
2022/10/09 06:58:45;;;;;;;28.95;12.52;;;6.00;99.90;;;;;;4994141;28;20141;-77
2022/10/09 07:01:15;;;;;;;31.33;12.07;;;6.10;99.90;;;;;;4995296;28;20047;-76
2022/10/09 07:03:43;;;;;;;28.23;12.75;;;6.20;99.90;;;;;;4993662;28;20050;-75
2022/10/09 07:06:12;;;;;;;31.17;12.98;;;6.20;99.90;;;;;;4993650;28;20125;-75
2022/10/09 07:08:42;;;;;;;26.63;12.45;;;6.30;99.90;;;;;;4993898;28;20108;-77
2022/10/09 07:11:22;;;;;;;27.27;11.38;;;6.40;99.90;;;;;;4993458;28;20053;-78
2022/10/09 07:13:53;;;;;;;26.63;11.70;;;6.50;99.90;;;;;;4995490;28;20081;-76
2022/10/09 07:16:21;;;;;;;31.75;12.40;;;6.60;99.90;;;;;;4993598;28;20100;-77
2022/10/09 07:18:47;;;;;;;27.33;12.10;;;6.70;99.90;;;;;;4993768;28;20058;-75
2022/10/09 07:21:13;;;;;;;28.65;14.10;;;6.70;99.90;;;;;;4977353;28;20390;-75
2022/10/09 07:23:39;;;;;;;28.23;12.88;;;6.90;99.90;;;;;;4993305;28;20058;-76
2022/10/09 07:26:25;;;;;;;23.77;12.13;;;7.00;99.90;;;;;;4995022;28;20038;-75
2022/10/09 07:28:52;;;;;;;26.98;12.70;;;7.00;99.90;;;;;;4977239;28;20098;-75
2022/10/09 07:31:18;;;;;;;31.67;13.85;;;7.00;99.90;;;;;;4993816;28;20042;-74
2022/10/09 07:33:51;;;;;;;31.50;13.95;;;7.10;99.90;;;;;;4994318;28;20050;-74
2022/10/09 07:36:17;;;;;;;38.75;15.80;;;7.10;99.90;;;;;;4977473;28;20399;-75
2022/10/09 07:38:48;;;;;;;33.13;15.15;;;7.20;99.90;;;;;;4961254;28;20046;-75
2022/10/09 07:41:14;;;;;;;31.20;15.52;;;7.20;99.90;;;;;;4976889;28;20062;-73
2022/10/09 07:43:41;;;;;;;31.73;15.13;;;7.30;99.90;;;;;;4992911;28;20495;-75
2022/10/09 07:46:11;;;;;;;34.65;14.13;;;7.30;99.90;;;;;;4993901;28;20274;-77
2022/10/09 07:48:37;;;;;;;31.85;12.90;;;7.40;99.90;;;;;;4993532;28;20068;-75
2022/10/09 07:51:08;;;;;;;104.07;40.08;;;7.50;99.90;;;;;;4992748;28;20046;-75
2022/10/09 07:53:34;;;;;;;31.90;14.82;;;7.60;99.90;;;;;;4994106;28;20051;-79
2022/10/09 07:56:00;;;;;;;34.63;14.73;;;7.60;99.90;;;;;;4992538;28;20042;-75
2022/10/09 07:58:25;;;;;;;38.33;15.48;;;7.70;99.90;;;;;;4993919;28;20443;-75
2022/10/09 08:00:51;;;;;;;29.95;15.30;;;7.80;99.90;;;;;;4993884;28;20096;-75
2022/10/09 08:03:17;;;;;;;36.03;15.23;;;7.80;99.90;;;;;;4993878;28;20082;-75
2022/10/09 08:05:43;;;;;;;34.90;16.10;;;7.90;99.90;;;;;;4993398;28;20120;-74
2022/10/09 08:08:08;;;;;;;32.15;15.52;;;8.00;99.90;;;;;;4976555;28;20495;-76
2022/10/09 08:10:34;;;;;;;30.65;15.05;;;8.10;99.90;;;;;;4992855;28;20065;-78
2022/10/09 08:13:00;;;;;;;35.53;15.25;;;8.20;99.90;;;;;;4976212;28;20097;-77
2022/10/09 08:15:26;;;;;;;39.03;15.95;;;8.20;99.90;;;;;;4993822;28;20147;-77
2022/10/09 08:17:52;;;;;;;38.10;15.20;;;8.30;99.90;;;;;;4960961;28;20065;-76
2022/10/09 08:20:18;;;;;;;30.77;14.85;;;8.40;99.90;;;;;;4993647;28;20126;-77
2022/10/09 08:22:44;;;;;;;31.75;13.65;;;8.50;99.90;;;;;;4994110;28;20053;-76
2022/10/09 08:25:10;;;;;;;30.10;13.02;;;8.60;99.90;;;;;;4992820;28;20081;-78
2022/10/09 08:27:36;;;;;;;27.90;13.85;;;8.70;99.90;;;;;;4976071;28;20518;-78
2022/10/09 08:30:01;;;;;;;30.52;12.43;;;9.00;99.90;;;;;;4992612;28;20061;-77
2022/10/09 08:32:27;;;;;;;25.85;12.35;;;9.00;99.90;;;;;;4993591;28;20056;-78
2022/10/09 08:34:53;;;;;;;29.80;11.68;;;9.20;99.90;;;;;;4992447;28;20128;-78
2022/10/09 08:37:19;;;;;;;24.63;10.95;;;9.20;99.90;;;;;;4975884;28;20047;-76
2022/10/09 08:39:44;;;;;;;29.00;11.07;;;9.30;99.90;;;;;;4992107;28;20046;-76
2022/10/09 08:42:34;;;;;;;26.95;12.00;;;9.40;99.90;;;;;;4994157;28;20065;-76
2022/10/09 08:45:01;;;;;;;26.33;10.43;;;9.50;99.90;;;;;;4976714;28;20081;-75
2022/10/09 08:47:42;;;;;;;;;;;9.70;99.90;;;;;;4993581;28;20054;-77
2022/10/09 08:50:21;;;;;;;20.30;9.32;;;9.70;99.90;;;;;;4992219;28;19921;-79
2022/10/09 08:52:59;;;;;;;25.63;11.63;;;9.80;99.90;;;;;;4993932;28;20549;-76
2022/10/09 08:55:34;;;;;;;25.75;9.75;;;9.80;99.90;;;;;;4991854;28;20379;-75
2022/10/09 08:58:03;;;;;;;23.83;10.18;;;9.90;99.90;;;;;;5012393;28;20387;-76
2022/10/09 09:00:44;;;;;;;25.88;9.60;;;10.00;99.90;;;;;;4996232;28;20049;-77
2022/10/09 09:03:52;;;;;;;24.95;9.93;;;10.20;99.90;;;;;;5012514;28;20089;-76
2022/10/09 09:06:47;;;;;;;21.05;9.43;;;10.30;99.90;;;;;;5013286;28;20414;-75
2022/10/09 09:09:39;;;;;;;22.52;9.38;;;10.30;99.90;;;;;;5012087;28;20556;-76
2022/10/09 09:12:32;;;;;;;25.30;9.38;;;10.50;99.90;;;;;;4993483;28;20066;-80
2022/10/09 09:15:06;;;;;;;22.75;8.77;;;10.60;99.90;;;;;;4997251;28;20049;-76
2022/10/09 09:17:45;;;;;;;26.23;8.52;;;10.70;99.90;;;;;;4996086;28;20402;-76
2022/10/09 09:20:28;;;;;;;18.48;9.55;;;10.80;99.90;;;;;;4995975;28;20063;-76
2022/10/09 09:22:57;;;;;;;24.77;8.73;;;10.90;99.90;;;;;;4996427;28;20057;-76
2022/10/09 09:25:27;;;;;;;17.75;7.28;;;11.00;99.90;;;;;;4996131;28;20085;-78
2022/10/09 09:27:57;;;;;;;26.17;7.68;;;11.10;99.90;;;;;;4997231;28;20047;-76
2022/10/09 09:30:36;;;;;;;19.95;9.13;;;11.20;99.90;;;;;;4996010;28;20201;-76
2022/10/09 09:33:08;;;;;;;23.85;8.93;;;11.30;99.90;;;;;;4996610;28;20363;-80
2022/10/09 09:36:00;;;;;;;18.02;8.23;;;11.40;99.90;;;;;;4995687;28;20141;-75
2022/10/09 09:38:26;;;;;;;20.83;7.65;;;11.50;99.90;;;;;;4996938;28;20042;-76
2022/10/09 09:40:52;;;;;;;24.10;7.93;;;11.60;99.90;;;;;;4996308;28;20133;-76
2022/10/09 09:43:23;;;;;;;20.05;7.45;;;11.70;99.90;;;;;;4996211;28;20401;-78
2022/10/09 09:45:52;;;;;;;20.88;7.88;;;11.80;99.90;;;;;;4997384;28;20390;-79
2022/10/09 09:48:38;;;;;;;21.48;8.02;;;11.80;99.90;;;;;;4996892;28;20403;-77
2022/10/09 09:51:12;;;;;;;20.60;7.87;;;11.90;99.90;;;;;;4995573;28;20053;-76
2022/10/09 09:53:49;;;;;;;19.15;8.02;;;11.90;99.90;;;;;;4997262;28;20344;-76
2022/10/09 09:56:16;;;;;;;19.75;7.57;;;12.00;99.90;;;;;;4995196;28;20494;-76
2022/10/09 09:58:51;;;;;;;22.13;7.85;;;12.00;99.90;;;;;;4996049;28;20046;-76
2022/10/09 10:01:22;;;;;;;18.52;8.02;;;12.10;99.90;;;;;;4995383;28;20506;-75
2022/10/09 10:03:51;;;;;;;23.80;8.25;;;12.10;99.90;;;;;;4996379;28;20050;-78
2022/10/09 10:06:43;;;;;;;20.25;7.85;;;12.20;99.90;;;;;;5012025;28;20062;-78
2022/10/09 10:09:16;;;;;;;22.50;7.80;;;12.20;99.90;;;;;;4994963;28;20073;-76
2022/10/09 10:11:58;;;;;;;19.45;7.32;;;12.40;99.90;;;;;;4994619;28;20525;-76
2022/10/09 10:14:25;;;;;;;17.15;6.55;;;12.40;99.90;;;;;;4995830;28;20093;-77
2022/10/09 10:16:54;;;;;;;16.33;7.13;;;12.50;99.90;;;;;;4978777;28;20508;-84
2022/10/09 10:19:23;;;;;;;19.52;6.90;;;12.60;99.90;;;;;;4995243;28;20381;-75
2022/10/09 10:21:59;;;;;;;22.80;8.07;;;12.70;99.90;;;;;;4996051;28;20129;-77
2022/10/09 10:24:45;;;;;;;21.48;7.43;;;12.80;99.90;;;;;;4995629;28;20077;-74
2022/10/09 10:27:20;;;;;;;19.77;7.67;;;12.80;99.90;;;;;;5011825;28;20048;-75
2022/10/09 10:29:49;;;;;;;19.08;6.85;;;12.80;99.90;;;;;;5011208;28;20051;-76
2022/10/09 10:33:05;;;;;;;25.95;7.43;;;12.90;99.90;;;;;;4995781;28;20054;-75
2022/10/09 10:35:35;;;;;;;15.50;6.53;;;13.00;99.90;;;;;;4958004;28;20046;-76
2022/10/09 10:38:32;;;;;;;27.23;7.47;;;12.90;99.90;;;;;;4974643;28;20038;-76
2022/10/09 10:41:22;;;;;;;18.40;7.22;;;12.90;99.90;;;;;;4979146;28;20491;-75
2022/10/09 10:44:27;;;;;;;19.08;6.72;;;13.00;99.90;;;;;;4994324;28;20089;-76
2022/10/09 10:47:00;;;;;;;18.30;6.78;;;13.10;99.90;;;;;;4985936;28;20063;-76
2022/10/09 10:49:26;;;;;;;18.77;6.95;;;13.20;99.90;;;;;;4994191;28;20061;-74
2022/10/09 10:52:01;;;;;;;18.30;6.25;;;13.20;99.90;;;;;;4995828;28;20128;-75
2022/10/09 10:54:29;;;;;;;19.67;6.65;;;13.20;99.90;;;;;;4994319;28;20081;-75
2022/10/09 10:57:15;;;;;;;21.27;7.30;;;13.30;99.90;;;;;;4994665;28;20054;-81
2022/10/09 11:00:05;;;;;;;19.10;6.70;;;13.30;99.90;;;;;;4978193;28;20048;-76
2022/10/09 11:02:42;;;;;;;17.77;5.88;;;13.30;99.90;;;;;;5010887;28;20038;-77
2022/10/09 11:05:26;;;;;;;17.52;6.53;;;13.30;99.90;;;;;;4995084;28;20049;-76
2022/10/09 11:08:20;;;;;;;18.48;6.32;;;13.40;99.90;;;;;;4977666;28;20097;-76
2022/10/09 11:11:04;;;;;;;17.75;6.13;;;13.40;99.90;;;;;;4993969;28;20065;-75
2022/10/09 11:13:38;;;;;;;14.82;5.43;;;13.60;99.90;;;;;;4993942;28;20050;-74
2022/10/09 11:16:13;;;;;;;17.80;5.47;;;13.60;99.90;;;;;;4995405;28;20371;-74
2022/10/09 11:19:13;;;;;;;17.77;5.43;;;13.80;99.90;;;;;;4994685;28;20525;-74
2022/10/09 11:21:58;;;;;;;20.10;5.85;;;13.80;99.90;;;;;;4993882;28;20050;-76
2022/10/09 11:24:44;;;;;;;14.55;4.78;;;13.90;99.90;;;;;;4995491;28;20053;-75
2022/10/09 11:27:36;;;;;;;17.13;5.27;;;13.90;99.90;;;;;;5010614;28;20136;-76
2022/10/09 11:30:07;;;;;;;13.85;5.18;;;13.90;99.90;;;;;;4994676;28;20050;-78
2022/10/09 11:32:54;;;;;;;12.93;4.82;;;13.90;99.90;;;;;;4995440;28;20050;-75
2022/10/09 11:35:28;;;;;;;17.13;4.65;;;14.00;99.90;;;;;;4995831;28;20050;-75
2022/10/09 11:38:12;;;;;;;12.50;3.95;;;14.00;99.90;;;;;;4994922;28;20046;-75
2022/10/09 11:40:42;;;;;;;15.25;4.40;;;14.00;99.90;;;;;;4993807;28;20192;-75
2022/10/09 11:43:26;;;;;;;15.02;3.65;;;14.10;99.90;;;;;;4994692;28;20057;-76
2022/10/09 11:45:54;;;;;;;13.52;3.90;;;14.10;99.90;;;;;;4993561;28;20451;-76
2022/10/09 11:48:34;;;;;;;12.85;3.50;;;14.20;99.90;;;;;;4995389;28;20057;-76
2022/10/09 11:51:25;;;;;;;13.57;4.00;;;14.20;99.90;;;;;;4993520;28;20122;-77
2022/10/09 11:53:52;;;;;;;12.65;4.07;;;14.30;99.90;;;;;;4994653;28;20487;-75
2022/10/09 11:56:19;;;;;;;18.75;4.28;;;14.30;99.90;;;;;;5009382;28;20046;-76
2022/10/09 11:58:57;;;;;;;14.30;3.95;;;14.40;99.90;;;;;;4994415;28;20061;-74
2022/10/09 12:01:28;;;;;;;11.20;3.92;;;14.40;99.90;;;;;;4977288;28;20165;-74
2022/10/09 12:04:11;;;;;;;13.27;4.38;;;14.50;99.90;;;;;;4994446;28;20489;-75
2022/10/09 12:06:49;;;;;;;12.48;3.58;;;14.50;99.90;;;;;;4993460;28;20479;-76
2022/10/09 12:09:20;;;;;;;15.40;3.92;;;14.60;99.90;;;;;;4994456;28;20046;-75
2022/10/09 12:12:26;;;;;;;12.23;3.65;;;14.60;99.90;;;;;;5120158;27;2075539;-74
2022/10/09 12:14:52;;;;;;;10.75;3.63;;;14.60;99.90;;;;;;5153886;27;20058;-73
2022/10/09 12:17:24;;;;;;;15.60;4.10;;;14.70;99.90;;;;;;5153675;27;20508;-77
2022/10/09 12:19:53;;;;;;;19.67;3.50;;;14.70;99.90;;;;;;5152805;27;20057;-76
2022/10/09 12:22:35;;;;;;;9.82;2.65;;;14.70;99.90;;;;;;5136217;27;20086;-76
2022/10/09 12:25:18;;;;;;;10.77;2.28;;;14.90;99.90;;;;;;5135462;27;20058;-76
2022/10/09 12:27:46;;;;;;;13.32;2.08;;;14.90;99.90;;;;;;5153992;27;20114;-76
2022/10/09 12:30:12;;;;;;;7.13;1.88;;;14.70;99.90;;;;;;5172577;27;20050;-74
2022/10/09 12:32:40;;;;;;;9.98;2.45;;;14.70;99.90;;;;;;5172417;27;20081;-77
2022/10/09 12:35:28;;;;;;;9.70;2.35;;;14.70;99.90;;;;;;5172712;27;20042;-76
2022/10/09 12:37:54;;;;;;;6.93;2.10;;;14.80;99.90;;;;;;5172867;27;20083;-74
2022/10/09 12:40:26;;;;;;;11.35;2.10;;;15.00;99.90;;;;;;5135668;27;20087;-76
2022/10/09 12:42:56;;;;;;;12.90;2.53;;;14.80;99.90;;;;;;5153895;27;20046;-77
2022/10/09 12:45:25;;;;;;;12.57;2.67;;;15.00;99.90;;;;;;5161851;27;20490;-75
2022/10/09 12:47:52;;;;;;;8.52;2.15;;;15.00;99.90;;;;;;5134940;27;20071;-78
2022/10/09 12:50:31;;;;;;;10.00;2.35;;;14.90;99.90;;;;;;5133340;27;20043;-75
2022/10/09 12:53:00;;;;;;;9.55;2.05;;;15.00;99.90;;;;;;5135388;27;20339;-76
2022/10/09 12:55:28;;;;;;;7.22;1.70;;;15.00;99.90;;;;;;5152993;27;20070;-78
2022/10/09 12:58:24;;;;;;;9.98;2.13;;;15.00;99.90;;;;;;5161687;27;20047;-76
2022/10/09 13:00:52;;;;;;;;;;;15.00;99.90;;;;;;5147356;27;20078;-75
2022/10/09 13:03:25;;;;;;;5.93;2.03;;;15.10;99.90;;;;;;5153378;27;19919;-75
2022/10/09 13:05:51;;;;;;;11.00;2.17;;;15.20;99.90;;;;;;5153859;27;20046;-75